sensor_id;sensor_type;location;lat;lon;timestamp;temperature;humidity
19809;DHT22;48538;32.784;-96.802;2024-03-22T00:01:51;17.00;99.90
19809;DHT22;48538;32.784;-96.802;2024-03-22T00:04:17;16.90;99.90
19809;DHT22;48538;32.784;-96.802;2024-03-22T00:06:45;16.90;99.90
19809;DHT22;48538;32.784;-96.802;2024-03-22T00:09:12;16.90;99.90
19809;DHT22;48538;32.784;-96.802;2024-03-22T00:11:42;16.90;99.90
19809;DHT22;48538;32.784;-96.802;2024-03-22T00:14:09;16.90;99.90
19809;DHT22;48538;32.784;-96.802;2024-03-22T00:16:36;16.80;99.90
19809;DHT22;48538;32.784;-96.802;2024-03-22T00:19:03;16.80;99.90
19809;DHT22;48538;32.784;-96.802;2024-03-22T00:21:35;16.80;99.90
19809;DHT22;48538;32.784;-96.802;2024-03-22T00:24:02;16.90;99.90
19809;DHT22;48538;32.784;-96.802;2024-03-22T00:26:28;16.70;99.90
19809;DHT22;48538;32.784;-96.802;2024-03-22T00:28:55;16.80;99.90
19809;DHT22;48538;32.784;-96.802;2024-03-22T00:31:24;16.80;99.90
19809;DHT22;48538;32.784;-96.802;2024-03-22T00:33:51;16.80;99.90
19809;DHT22;48538;32.784;-96.802;2024-03-22T00:36:17;16.70;99.90
19809;DHT22;48538;32.784;-96.802;2024-03-22T00:38:43;16.40;99.90
19809;DHT22;48538;32.784;-96.802;2024-03-22T00:41:10;16.50;99.90
19809;DHT22;48538;32.784;-96.802;2024-03-22T00:43:38;16.60;99.90
19809;DHT22;48538;32.784;-96.802;2024-03-22T00:46:05;16.50;99.90
19809;DHT22;48538;32.784;-96.802;2024-03-22T00:48:31;16.40;99.90
19809;DHT22;48538;32.784;-96.802;2024-03-22T00:50:58;16.40;99.90
19809;DHT22;48538;32.784;-96.802;2024-03-22T00:53:24;16.30;99.90
19809;DHT22;48538;32.784;-96.802;2024-03-22T00:55:50;16.30;99.90
19809;DHT22;48538;32.784;-96.802;2024-03-22T00:58:20;16.40;99.90
19809;DHT22;48538;32.784;-96.802;2024-03-22T01:00:47;16.40;99.90
19809;DHT22;48538;32.784;-96.802;2024-03-22T01:03:13;16.40;99.90
19809;DHT22;48538;32.784;-96.802;2024-03-22T01:05:40;16.40;99.90
19809;DHT22;48538;32.784;-96.802;2024-03-22T01:08:09;16.40;99.90
19809;DHT22;48538;32.784;-96.802;2024-03-22T01:10:35;16.50;99.90
19809;DHT22;48538;32.784;-96.802;2024-03-22T01:13:03;16.60;99.90
19809;DHT22;48538;32.784;-96.802;2024-03-22T01:15:29;16.60;99.90
19809;DHT22;48538;32.784;-96.802;2024-03-22T01:18:14;16.60;99.90
19809;DHT22;48538;32.784;-96.802;2024-03-22T01:20:40;16.30;99.90
19809;DHT22;48538;32.784;-96.802;2024-03-22T01:23:08;16.00;99.90
19809;DHT22;48538;32.784;-96.802;2024-03-22T01:25:36;15.80;99.90
19809;DHT22;48538;32.784;-96.802;2024-03-22T01:28:03;15.60;99.90
19809;DHT22;48538;32.784;-96.802;2024-03-22T01:30:30;15.70;99.90
19809;DHT22;48538;32.784;-96.802;2024-03-22T01:32:56;15.70;99.90
19809;DHT22;48538;32.784;-96.802;2024-03-22T01:35:23;15.40;99.90
19809;DHT22;48538;32.784;-96.802;2024-03-22T01:37:49;15.30;99.90
19809;DHT22;48538;32.784;-96.802;2024-03-22T01:40:19;15.50;99.90
19809;DHT22;48538;32.784;-96.802;2024-03-22T01:42:52;15.50;99.90
19809;DHT22;48538;32.784;-96.802;2024-03-22T01:45:18;15.50;99.90
19809;DHT22;48538;32.784;-96.802;2024-03-22T01:47:55;15.50;99.90
19809;DHT22;48538;32.784;-96.802;2024-03-22T01:50:22;15.60;99.90
19809;DHT22;48538;32.784;-96.802;2024-03-22T01:52:49;15.50;99.90
19809;DHT22;48538;32.784;-96.802;2024-03-22T01:55:23;15.60;99.90
19809;DHT22;48538;32.784;-96.802;2024-03-22T01:57:52;15.50;99.90
19809;DHT22;48538;32.784;-96.802;2024-03-22T02:00:19;15.40;99.90
19809;DHT22;48538;32.784;-96.802;2024-03-22T02:02:46;15.40;99.90
19809;DHT22;48538;32.784;-96.802;2024-03-22T02:05:16;15.50;99.90
19809;DHT22;48538;32.784;-96.802;2024-03-22T02:07:45;15.50;99.90
19809;DHT22;48538;32.784;-96.802;2024-03-22T02:10:12;15.50;99.90
19809;DHT22;48538;32.784;-96.802;2024-03-22T02:12:39;15.50;99.90
19809;DHT22;48538;32.784;-96.802;2024-03-22T02:15:07;15.50;99.90
19809;DHT22;48538;32.784;-96.802;2024-03-22T02:17:35;15.50;99.90
19809;DHT22;48538;32.784;-96.802;2024-03-22T02:20:02;15.40;99.90
19809;DHT22;48538;32.784;-96.802;2024-03-22T02:22:32;15.30;99.90
19809;DHT22;48538;32.784;-96.802;2024-03-22T02:24:58;15.30;99.90
19809;DHT22;48538;32.784;-96.802;2024-03-22T02:27:25;15.30;99.90
19809;DHT22;48538;32.784;-96.802;2024-03-22T02:29:52;15.30;99.90
19809;DHT22;48538;32.784;-96.802;2024-03-22T02:32:18;15.30;99.90
19809;DHT22;48538;32.784;-96.802;2024-03-22T02:34:45;15.30;99.90
19809;DHT22;48538;32.784;-96.802;2024-03-22T02:37:11;15.20;99.90
19809;DHT22;48538;32.784;-96.802;2024-03-22T02:39:37;15.20;99.90
19809;DHT22;48538;32.784;-96.802;2024-03-22T02:42:04;15.30;99.90
19809;DHT22;48538;32.784;-96.802;2024-03-22T02:44:30;15.30;99.90
19809;DHT22;48538;32.784;-96.802;2024-03-22T02:46:57;15.30;99.90
19809;DHT22;48538;32.784;-96.802;2024-03-22T02:49:24;15.30;99.90
19809;DHT22;48538;32.784;-96.802;2024-03-22T02:51:51;15.40;99.90
19809;DHT22;48538;32.784;-96.802;2024-03-22T02:54:17;15.40;99.90
19809;DHT22;48538;32.784;-96.802;2024-03-22T02:56:43;15.50;99.90
19809;DHT22;48538;32.784;-96.802;2024-03-22T02:59:10;15.50;99.90
19809;DHT22;48538;32.784;-96.802;2024-03-22T03:01:36;15.60;99.90
19809;DHT22;48538;32.784;-96.802;2024-03-22T03:04:02;15.60;99.90
19809;DHT22;48538;32.784;-96.802;2024-03-22T03:06:29;15.50;99.90
19809;DHT22;48538;32.784;-96.802;2024-03-22T03:08:55;15.50;99.90
19809;DHT22;48538;32.784;-96.802;2024-03-22T03:11:21;15.50;99.90
19809;DHT22;48538;32.784;-96.802;2024-03-22T03:13:48;15.50;99.90
19809;DHT22;48538;32.784;-96.802;2024-03-22T03:16:14;15.50;99.90
19809;DHT22;48538;32.784;-96.802;2024-03-22T03:18:41;15.40;99.90
19809;DHT22;48538;32.784;-96.802;2024-03-22T03:21:07;15.50;99.90
19809;DHT22;48538;32.784;-96.802;2024-03-22T03:23:34;15.50;99.90
19809;DHT22;48538;32.784;-96.802;2024-03-22T03:26:00;15.50;99.90
19809;DHT22;48538;32.784;-96.802;2024-03-22T03:28:26;15.60;99.90
19809;DHT22;48538;32.784;-96.802;2024-03-22T03:30:53;15.50;99.90
19809;DHT22;48538;32.784;-96.802;2024-03-22T03:33:19;15.60;99.90
19809;DHT22;48538;32.784;-96.802;2024-03-22T03:35:46;15.60;99.90
19809;DHT22;48538;32.784;-96.802;2024-03-22T03:38:13;15.60;99.90
19809;DHT22;48538;32.784;-96.802;2024-03-22T03:40:39;15.70;99.90
19809;DHT22;48538;32.784;-96.802;2024-03-22T03:43:06;15.80;99.90
19809;DHT22;48538;32.784;-96.802;2024-03-22T03:45:32;15.80;99.90
19809;DHT22;48538;32.784;-96.802;2024-03-22T03:48:02;15.80;99.90
19809;DHT22;48538;32.784;-96.802;2024-03-22T03:50:28;15.90;99.90
19809;DHT22;48538;32.784;-96.802;2024-03-22T03:52:54;15.90;99.90
19809;DHT22;48538;32.784;-96.802;2024-03-22T03:55:22;16.00;99.90
19809;DHT22;48538;32.784;-96.802;2024-03-22T03:57:50;16.00;99.90
19809;DHT22;48538;32.784;-96.802;2024-03-22T04:00:20;16.00;99.90
19809;DHT22;48538;32.784;-96.802;2024-03-22T04:02:49;16.00;99.90
19809;DHT22;48538;32.784;-96.802;2024-03-22T04:05:16;15.80;99.90
19809;DHT22;48538;32.784;-96.802;2024-03-22T04:07:46;15.90;99.90
19809;DHT22;48538;32.784;-96.802;2024-03-22T04:10:13;15.70;99.90
19809;DHT22;48538;32.784;-96.802;2024-03-22T04:12:39;15.70;99.90
19809;DHT22;48538;32.784;-96.802;2024-03-22T04:15:06;15.80;99.90
19809;DHT22;48538;32.784;-96.802;2024-03-22T04:17:33;15.60;99.90
19809;DHT22;48538;32.784;-96.802;2024-03-22T04:19:59;15.70;99.90
19809;DHT22;48538;32.784;-96.802;2024-03-22T04:22:26;15.70;99.90
19809;DHT22;48538;32.784;-96.802;2024-03-22T04:24:52;15.80;99.90
19809;DHT22;48538;32.784;-96.802;2024-03-22T04:27:18;15.80;99.90
19809;DHT22;48538;32.784;-96.802;2024-03-22T04:29:47;15.70;99.90
19809;DHT22;48538;32.784;-96.802;2024-03-22T04:32:13;15.70;99.90
19809;DHT22;48538;32.784;-96.802;2024-03-22T04:34:43;15.70;99.90
19809;DHT22;48538;32.784;-96.802;2024-03-22T04:37:10;15.60;99.90
19809;DHT22;48538;32.784;-96.802;2024-03-22T04:39:39;15.70;99.90
19809;DHT22;48538;32.784;-96.802;2024-03-22T04:42:06;15.80;99.90
19809;DHT22;48538;32.784;-96.802;2024-03-22T04:44:32;15.70;99.90
19809;DHT22;48538;32.784;-96.802;2024-03-22T04:46:59;15.70;99.90
19809;DHT22;48538;32.784;-96.802;2024-03-22T04:49:25;15.70;99.90
19809;DHT22;48538;32.784;-96.802;2024-03-22T04:51:51;15.70;99.90
19809;DHT22;48538;32.784;-96.802;2024-03-22T04:54:17;15.80;99.90
19809;DHT22;48538;32.784;-96.802;2024-03-22T04:56:44;15.80;99.90
19809;DHT22;48538;32.784;-96.802;2024-03-22T04:59:10;15.80;99.90
19809;DHT22;48538;32.784;-96.802;2024-03-22T05:01:36;15.80;99.90
19809;DHT22;48538;32.784;-96.802;2024-03-22T05:04:02;15.70;99.90
19809;DHT22;48538;32.784;-96.802;2024-03-22T05:06:29;15.70;99.90
19809;DHT22;48538;32.784;-96.802;2024-03-22T05:08:55;15.70;99.90
19809;DHT22;48538;32.784;-96.802;2024-03-22T05:11:21;15.70;99.90
19809;DHT22;48538;32.784;-96.802;2024-03-22T05:13:47;15.70;99.90
19809;DHT22;48538;32.784;-96.802;2024-03-22T05:16:13;15.90;99.90
19809;DHT22;48538;32.784;-96.802;2024-03-22T05:18:40;15.90;99.90
19809;DHT22;48538;32.784;-96.802;2024-03-22T05:21:06;15.90;99.90
19809;DHT22;48538;32.784;-96.802;2024-03-22T05:23:32;16.00;99.90
19809;DHT22;48538;32.784;-96.802;2024-03-22T05:25:58;16.00;99.90
19809;DHT22;48538;32.784;-96.802;2024-03-22T05:28:25;16.10;99.90
19809;DHT22;48538;32.784;-96.802;2024-03-22T05:30:52;16.10;99.90
19809;DHT22;48538;32.784;-96.802;2024-03-22T05:33:18;16.10;99.90
19809;DHT22;48538;32.784;-96.802;2024-03-22T05:35:55;16.10;99.90
19809;DHT22;48538;32.784;-96.802;2024-03-22T05:38:21;16.10;99.90
19809;DHT22;48538;32.784;-96.802;2024-03-22T05:40:47;16.10;99.90
19809;DHT22;48538;32.784;-96.802;2024-03-22T05:43:14;16.20;99.90
19809;DHT22;48538;32.784;-96.802;2024-03-22T05:45:40;16.10;99.90
19809;DHT22;48538;32.784;-96.802;2024-03-22T05:48:07;16.20;99.90
19809;DHT22;48538;32.784;-96.802;2024-03-22T05:50:33;16.10;99.90
19809;DHT22;48538;32.784;-96.802;2024-03-22T05:52:59;16.00;99.90
19809;DHT22;48538;32.784;-96.802;2024-03-22T05:55:25;15.90;99.90
19809;DHT22;48538;32.784;-96.802;2024-03-22T05:57:53;16.00;99.90
19809;DHT22;48538;32.784;-96.802;2024-03-22T06:00:19;16.00;99.90
19809;DHT22;48538;32.784;-96.802;2024-03-22T06:02:46;16.10;99.90
19809;DHT22;48538;32.784;-96.802;2024-03-22T06:05:12;16.10;99.90
19809;DHT22;48538;32.784;-96.802;2024-03-22T06:07:38;16.20;99.90
19809;DHT22;48538;32.784;-96.802;2024-03-22T06:10:08;16.20;99.90
19809;DHT22;48538;32.784;-96.802;2024-03-22T06:12:37;16.30;99.90
19809;DHT22;48538;32.784;-96.802;2024-03-22T06:15:04;16.30;99.90
19809;DHT22;48538;32.784;-96.802;2024-03-22T06:17:32;16.40;99.90
19809;DHT22;48538;32.784;-96.802;2024-03-22T06:20:00;16.40;99.90
19809;DHT22;48538;32.784;-96.802;2024-03-22T06:22:26;16.40;99.90
19809;DHT22;48538;32.784;-96.802;2024-03-22T06:24:53;16.30;99.90
19809;DHT22;48538;32.784;-96.802;2024-03-22T06:27:19;16.40;99.90
19809;DHT22;48538;32.784;-96.802;2024-03-22T06:29:46;16.30;99.90
19809;DHT22;48538;32.784;-96.802;2024-03-22T06:32:12;16.20;99.90
19809;DHT22;48538;32.784;-96.802;2024-03-22T06:34:38;16.20;99.90
19809;DHT22;48538;32.784;-96.802;2024-03-22T06:37:05;16.20;99.90
19809;DHT22;48538;32.784;-96.802;2024-03-22T06:39:31;16.30;99.90
19809;DHT22;48538;32.784;-96.802;2024-03-22T06:41:58;16.20;99.90
19809;DHT22;48538;32.784;-96.802;2024-03-22T06:44:24;16.20;99.90
19809;DHT22;48538;32.784;-96.802;2024-03-22T06:46:50;16.20;99.90
19809;DHT22;48538;32.784;-96.802;2024-03-22T06:49:16;16.20;99.90
19809;DHT22;48538;32.784;-96.802;2024-03-22T06:51:43;16.20;99.90
19809;DHT22;48538;32.784;-96.802;2024-03-22T06:54:09;16.10;99.90
19809;DHT22;48538;32.784;-96.802;2024-03-22T06:56:35;16.10;99.90
19809;DHT22;48538;32.784;-96.802;2024-03-22T06:59:02;16.10;99.90
19809;DHT22;48538;32.784;-96.802;2024-03-22T07:01:28;16.10;99.90
19809;DHT22;48538;32.784;-96.802;2024-03-22T07:03:55;16.00;99.90
19809;DHT22;48538;32.784;-96.802;2024-03-22T07:06:21;16.20;99.90
19809;DHT22;48538;32.784;-96.802;2024-03-22T07:08:47;16.20;99.90
19809;DHT22;48538;32.784;-96.802;2024-03-22T07:11:14;16.20;99.90
19809;DHT22;48538;32.784;-96.802;2024-03-22T07:13:40;16.30;99.90
19809;DHT22;48538;32.784;-96.802;2024-03-22T07:16:06;16.20;99.90
19809;DHT22;48538;32.784;-96.802;2024-03-22T07:18:32;16.30;99.90
19809;DHT22;48538;32.784;-96.802;2024-03-22T07:20:59;16.30;99.90
19809;DHT22;48538;32.784;-96.802;2024-03-22T07:23:27;16.30;99.90
19809;DHT22;48538;32.784;-96.802;2024-03-22T07:25:54;16.30;99.90
19809;DHT22;48538;32.784;-96.802;2024-03-22T07:28:20;16.30;99.90
19809;DHT22;48538;32.784;-96.802;2024-03-22T07:30:47;16.30;99.90
19809;DHT22;48538;32.784;-96.802;2024-03-22T07:33:13;16.20;99.90
19809;DHT22;48538;32.784;-96.802;2024-03-22T07:35:42;16.10;99.90
19809;DHT22;48538;32.784;-96.802;2024-03-22T07:38:08;16.10;99.90
19809;DHT22;48538;32.784;-96.802;2024-03-22T07:40:34;16.00;99.90
19809;DHT22;48538;32.784;-96.802;2024-03-22T07:43:01;16.00;99.90
19809;DHT22;48538;32.784;-96.802;2024-03-22T07:45:33;16.00;99.90
19809;DHT22;48538;32.784;-96.802;2024-03-22T07:48:00;16.00;99.90
19809;DHT22;48538;32.784;-96.802;2024-03-22T07:50:26;16.00;99.90
19809;DHT22;48538;32.784;-96.802;2024-03-22T07:52:52;16.00;99.90
19809;DHT22;48538;32.784;-96.802;2024-03-22T07:55:19;16.10;99.90
19809;DHT22;48538;32.784;-96.802;2024-03-22T07:57:45;16.20;99.90
19809;DHT22;48538;32.784;-96.802;2024-03-22T08:00:12;16.10;99.90
19809;DHT22;48538;32.784;-96.802;2024-03-22T08:02:38;16.10;99.90
19809;DHT22;48538;32.784;-96.802;2024-03-22T08:05:06;16.10;99.90
19809;DHT22;48538;32.784;-96.802;2024-03-22T08:07:32;16.00;99.90
19809;DHT22;48538;32.784;-96.802;2024-03-22T08:09:58;16.10;99.90
19809;DHT22;48538;32.784;-96.802;2024-03-22T08:12:25;16.10;99.90
19809;DHT22;48538;32.784;-96.802;2024-03-22T08:14:52;16.00;99.90
19809;DHT22;48538;32.784;-96.802;2024-03-22T08:17:18;16.00;99.90
19809;DHT22;48538;32.784;-96.802;2024-03-22T08:19:44;15.90;99.90
19809;DHT22;48538;32.784;-96.802;2024-03-22T08:22:11;15.90;99.90
19809;DHT22;48538;32.784;-96.802;2024-03-22T08:24:37;15.90;99.90
19809;DHT22;48538;32.784;-96.802;2024-03-22T08:27:04;15.90;99.90
19809;DHT22;48538;32.784;-96.802;2024-03-22T08:29:30;16.00;99.90
19809;DHT22;48538;32.784;-96.802;2024-03-22T08:31:56;15.90;99.90
19809;DHT22;48538;32.784;-96.802;2024-03-22T08:34:22;16.00;99.90
19809;DHT22;48538;32.784;-96.802;2024-03-22T08:36:49;16.20;99.90
19809;DHT22;48538;32.784;-96.802;2024-03-22T08:39:15;16.20;99.90
19809;DHT22;48538;32.784;-96.802;2024-03-22T08:41:41;16.20;99.90
19809;DHT22;48538;32.784;-96.802;2024-03-22T08:44:08;16.10;99.90
19809;DHT22;48538;32.784;-96.802;2024-03-22T08:46:34;16.20;99.90
19809;DHT22;48538;32.784;-96.802;2024-03-22T08:49:00;16.00;99.90
19809;DHT22;48538;32.784;-96.802;2024-03-22T08:51:26;16.10;99.90
19809;DHT22;48538;32.784;-96.802;2024-03-22T08:53:54;16.00;99.90
19809;DHT22;48538;32.784;-96.802;2024-03-22T08:56:21;15.90;99.90
19809;DHT22;48538;32.784;-96.802;2024-03-22T08:58:47;16.00;99.90
19809;DHT22;48538;32.784;-96.802;2024-03-22T09:01:13;15.90;99.90
19809;DHT22;48538;32.784;-96.802;2024-03-22T09:03:40;15.90;99.90
19809;DHT22;48538;32.784;-96.802;2024-03-22T09:06:06;16.00;99.90
19809;DHT22;48538;32.784;-96.802;2024-03-22T09:08:32;16.10;99.90
19809;DHT22;48538;32.784;-96.802;2024-03-22T09:10:59;16.10;99.90
19809;DHT22;48538;32.784;-96.802;2024-03-22T09:13:26;16.00;99.90
19809;DHT22;48538;32.784;-96.802;2024-03-22T09:15:58;15.90;99.90
19809;DHT22;48538;32.784;-96.802;2024-03-22T09:18:25;15.80;99.90
19809;DHT22;48538;32.784;-96.802;2024-03-22T09:20:54;15.80;99.90
19809;DHT22;48538;32.784;-96.802;2024-03-22T09:23:22;15.80;99.90
19809;DHT22;48538;32.784;-96.802;2024-03-22T09:25:48;15.70;99.90
19809;DHT22;48538;32.784;-96.802;2024-03-22T09:28:15;15.70;99.90
19809;DHT22;48538;32.784;-96.802;2024-03-22T09:30:41;15.70;99.90
19809;DHT22;48538;32.784;-96.802;2024-03-22T09:33:09;15.60;99.90
19809;DHT22;48538;32.784;-96.802;2024-03-22T09:35:35;15.60;99.90
19809;DHT22;48538;32.784;-96.802;2024-03-22T09:38:02;15.60;99.90
19809;DHT22;48538;32.784;-96.802;2024-03-22T09:40:29;15.60;99.90
19809;DHT22;48538;32.784;-96.802;2024-03-22T09:43:02;15.60;99.90
19809;DHT22;48538;32.784;-96.802;2024-03-22T09:45:32;15.70;99.90
19809;DHT22;48538;32.784;-96.802;2024-03-22T09:47:59;15.80;99.90
19809;DHT22;48538;32.784;-96.802;2024-03-22T09:50:26;15.70;99.90
19809;DHT22;48538;32.784;-96.802;2024-03-22T09:52:53;15.70;99.90
19809;DHT22;48538;32.784;-96.802;2024-03-22T09:55:25;15.70;99.90
19809;DHT22;48538;32.784;-96.802;2024-03-22T09:57:52;15.80;99.90
19809;DHT22;48538;32.784;-96.802;2024-03-22T10:00:20;15.80;99.90
19809;DHT22;48538;32.784;-96.802;2024-03-22T10:02:51;15.70;99.90
19809;DHT22;48538;32.784;-96.802;2024-03-22T10:05:19;15.80;99.90
19809;DHT22;48538;32.784;-96.802;2024-03-22T10:07:45;15.70;99.90
19809;DHT22;48538;32.784;-96.802;2024-03-22T10:10:11;15.60;99.90
19809;DHT22;48538;32.784;-96.802;2024-03-22T10:12:39;15.50;99.90
19809;DHT22;48538;32.784;-96.802;2024-03-22T10:15:06;15.40;99.90
19809;DHT22;48538;32.784;-96.802;2024-03-22T10:17:37;15.30;99.90
19809;DHT22;48538;32.784;-96.802;2024-03-22T10:20:04;15.30;99.90
19809;DHT22;48538;32.784;-96.802;2024-03-22T10:22:32;15.50;99.90
19809;DHT22;48538;32.784;-96.802;2024-03-22T10:24:58;15.40;99.90
19809;DHT22;48538;32.784;-96.802;2024-03-22T10:27:29;15.30;99.90
19809;DHT22;48538;32.784;-96.802;2024-03-22T10:29:56;15.30;99.90
19809;DHT22;48538;32.784;-96.802;2024-03-22T10:32:24;15.30;99.90
19809;DHT22;48538;32.784;-96.802;2024-03-22T10:34:50;15.40;99.90
19809;DHT22;48538;32.784;-96.802;2024-03-22T10:37:17;15.40;99.90
19809;DHT22;48538;32.784;-96.802;2024-03-22T10:39:43;15.20;99.90
19809;DHT22;48538;32.784;-96.802;2024-03-22T10:42:11;15.30;99.90
19809;DHT22;48538;32.784;-96.802;2024-03-22T10:44:38;15.50;99.90
19809;DHT22;48538;32.784;-96.802;2024-03-22T10:47:06;15.40;99.90
19809;DHT22;48538;32.784;-96.802;2024-03-22T10:49:37;15.30;99.90
19809;DHT22;48538;32.784;-96.802;2024-03-22T10:52:06;15.30;99.90
19809;DHT22;48538;32.784;-96.802;2024-03-22T10:54:40;15.30;99.90
19809;DHT22;48538;32.784;-96.802;2024-03-22T10:57:12;15.30;99.90
19809;DHT22;48538;32.784;-96.802;2024-03-22T10:59:41;15.30;99.90
19809;DHT22;48538;32.784;-96.802;2024-03-22T11:02:11;15.20;99.90
19809;DHT22;48538;32.784;-96.802;2024-03-22T11:04:37;15.10;99.90
19809;DHT22;48538;32.784;-96.802;2024-03-22T11:07:03;15.10;99.90
19809;DHT22;48538;32.784;-96.802;2024-03-22T11:09:30;15.10;99.90
19809;DHT22;48538;32.784;-96.802;2024-03-22T11:11:56;15.00;99.90
19809;DHT22;48538;32.784;-96.802;2024-03-22T11:14:24;15.00;99.90
19809;DHT22;48538;32.784;-96.802;2024-03-22T11:16:50;15.10;99.90
19809;DHT22;48538;32.784;-96.802;2024-03-22T11:19:17;15.10;99.90
19809;DHT22;48538;32.784;-96.802;2024-03-22T11:21:43;15.20;99.90
19809;DHT22;48538;32.784;-96.802;2024-03-22T11:24:09;15.20;99.90
19809;DHT22;48538;32.784;-96.802;2024-03-22T11:26:37;15.20;99.90
19809;DHT22;48538;32.784;-96.802;2024-03-22T11:29:03;15.30;99.90
19809;DHT22;48538;32.784;-96.802;2024-03-22T11:31:30;15.20;99.90
19809;DHT22;48538;32.784;-96.802;2024-03-22T11:33:57;15.10;99.90
19809;DHT22;48538;32.784;-96.802;2024-03-22T11:36:23;15.10;99.90
19809;DHT22;48538;32.784;-96.802;2024-03-22T11:38:50;15.10;99.90
19809;DHT22;48538;32.784;-96.802;2024-03-22T11:41:21;15.10;99.90
19809;DHT22;48538;32.784;-96.802;2024-03-22T11:43:49;15.10;99.90
19809;DHT22;48538;32.784;-96.802;2024-03-22T11:46:16;15.10;99.90
19809;DHT22;48538;32.784;-96.802;2024-03-22T11:48:43;15.00;99.90
19809;DHT22;48538;32.784;-96.802;2024-03-22T11:51:10;15.00;99.90
19809;DHT22;48538;32.784;-96.802;2024-03-22T11:53:36;15.00;99.90
19809;DHT22;48538;32.784;-96.802;2024-03-22T11:56:04;15.00;99.90
19809;DHT22;48538;32.784;-96.802;2024-03-22T11:58:30;15.00;99.90
19809;DHT22;48538;32.784;-96.802;2024-03-22T12:00:57;15.00;99.90
19809;DHT22;48538;32.784;-96.802;2024-03-22T12:03:24;14.90;99.90
19809;DHT22;48538;32.784;-96.802;2024-03-22T12:05:50;14.80;99.90
19809;DHT22;48538;32.784;-96.802;2024-03-22T12:08:18;14.80;99.90
19809;DHT22;48538;32.784;-96.802;2024-03-22T12:10:44;14.80;99.90
19809;DHT22;48538;32.784;-96.802;2024-03-22T12:13:11;14.90;99.90
19809;DHT22;48538;32.784;-96.802;2024-03-22T12:15:37;14.90;99.90
19809;DHT22;48538;32.784;-96.802;2024-03-22T12:18:03;15.00;99.90
19809;DHT22;48538;32.784;-96.802;2024-03-22T12:20:30;15.00;99.90
19809;DHT22;48538;32.784;-96.802;2024-03-22T12:22:56;15.00;99.90
19809;DHT22;48538;32.784;-96.802;2024-03-22T12:25:22;14.90;99.90
19809;DHT22;48538;32.784;-96.802;2024-03-22T12:27:48;15.00;99.90
19809;DHT22;48538;32.784;-96.802;2024-03-22T12:30:15;15.00;99.90
19809;DHT22;48538;32.784;-96.802;2024-03-22T12:32:41;15.00;99.90
19809;DHT22;48538;32.784;-96.802;2024-03-22T12:35:08;14.90;99.90
19809;DHT22;48538;32.784;-96.802;2024-03-22T12:37:34;14.90;99.90
19809;DHT22;48538;32.784;-96.802;2024-03-22T12:40:01;14.90;99.90
19809;DHT22;48538;32.784;-96.802;2024-03-22T12:42:28;14.80;99.90
19809;DHT22;48538;32.784;-96.802;2024-03-22T12:44:54;14.90;99.90
19809;DHT22;48538;32.784;-96.802;2024-03-22T12:47:21;14.80;99.90
19809;DHT22;48538;32.784;-96.802;2024-03-22T12:49:47;14.90;99.90
19809;DHT22;48538;32.784;-96.802;2024-03-22T12:52:13;14.90;99.90
19809;DHT22;48538;32.784;-96.802;2024-03-22T12:54:39;15.00;99.90
19809;DHT22;48538;32.784;-96.802;2024-03-22T12:57:05;15.00;99.90
19809;DHT22;48538;32.784;-96.802;2024-03-22T12:59:32;15.10;99.90
19809;DHT22;48538;32.784;-96.802;2024-03-22T13:01:59;15.10;99.90
19809;DHT22;48538;32.784;-96.802;2024-03-22T13:04:27;15.20;99.90
19809;DHT22;48538;32.784;-96.802;2024-03-22T13:06:53;15.20;99.90
19809;DHT22;48538;32.784;-96.802;2024-03-22T13:09:19;15.20;99.90
19809;DHT22;48538;32.784;-96.802;2024-03-22T13:11:48;15.20;99.90
19809;DHT22;48538;32.784;-96.802;2024-03-22T13:14:15;15.20;99.90
19809;DHT22;48538;32.784;-96.802;2024-03-22T13:16:41;15.30;99.90
19809;DHT22;48538;32.784;-96.802;2024-03-22T13:19:07;15.20;99.90
19809;DHT22;48538;32.784;-96.802;2024-03-22T13:21:38;15.20;99.90
19809;DHT22;48538;32.784;-96.802;2024-03-22T13:24:05;15.20;99.90
19809;DHT22;48538;32.784;-96.802;2024-03-22T13:26:31;15.20;99.90
19809;DHT22;48538;32.784;-96.802;2024-03-22T13:28:57;15.20;99.90
19809;DHT22;48538;32.784;-96.802;2024-03-22T13:31:24;15.30;99.90
19809;DHT22;48538;32.784;-96.802;2024-03-22T13:33:50;15.30;99.90
19809;DHT22;48538;32.784;-96.802;2024-03-22T13:36:16;15.30;99.90
19809;DHT22;48538;32.784;-96.802;2024-03-22T13:38:44;15.40;99.90
19809;DHT22;48538;32.784;-96.802;2024-03-22T13:41:10;15.40;99.90
19809;DHT22;48538;32.784;-96.802;2024-03-22T13:43:36;15.50;99.90
19809;DHT22;48538;32.784;-96.802;2024-03-22T13:46:05;15.50;99.90
19809;DHT22;48538;32.784;-96.802;2024-03-22T13:48:31;15.60;99.90
19809;DHT22;48538;32.784;-96.802;2024-03-22T13:50:58;15.60;99.90
19809;DHT22;48538;32.784;-96.802;2024-03-22T13:53:25;15.60;99.90
19809;DHT22;48538;32.784;-96.802;2024-03-22T13:55:53;15.50;99.90
19809;DHT22;48538;32.784;-96.802;2024-03-22T13:58:19;15.50;99.90
19809;DHT22;48538;32.784;-96.802;2024-03-22T14:00:46;15.50;99.90
19809;DHT22;48538;32.784;-96.802;2024-03-22T14:03:12;15.60;99.90
19809;DHT22;48538;32.784;-96.802;2024-03-22T14:05:38;15.50;99.90
19809;DHT22;48538;32.784;-96.802;2024-03-22T14:08:05;15.40;99.90
19809;DHT22;48538;32.784;-96.802;2024-03-22T14:10:31;15.50;99.90
19809;DHT22;48538;32.784;-96.802;2024-03-22T14:12:58;15.50;99.90
19809;DHT22;48538;32.784;-96.802;2024-03-22T14:15:25;15.50;99.90
19809;DHT22;48538;32.784;-96.802;2024-03-22T14:17:52;15.50;99.90
19809;DHT22;48538;32.784;-96.802;2024-03-22T14:20:19;15.40;99.90
19809;DHT22;48538;32.784;-96.802;2024-03-22T14:22:46;15.30;99.90
19809;DHT22;48538;32.784;-96.802;2024-03-22T14:25:13;15.20;99.90
19809;DHT22;48538;32.784;-96.802;2024-03-22T14:27:39;15.20;99.90
19809;DHT22;48538;32.784;-96.802;2024-03-22T14:30:08;15.30;99.90
19809;DHT22;48538;32.784;-96.802;2024-03-22T14:32:36;15.30;99.90
19809;DHT22;48538;32.784;-96.802;2024-03-22T14:35:02;15.20;99.90
19809;DHT22;48538;32.784;-96.802;2024-03-22T14:37:28;15.30;99.90
19809;DHT22;48538;32.784;-96.802;2024-03-22T14:39:54;15.40;99.90
19809;DHT22;48538;32.784;-96.802;2024-03-22T14:42:21;15.40;99.90
19809;DHT22;48538;32.784;-96.802;2024-03-22T14:44:47;15.40;99.90
19809;DHT22;48538;32.784;-96.802;2024-03-22T14:47:13;15.40;99.90
19809;DHT22;48538;32.784;-96.802;2024-03-22T14:49:39;15.40;99.90
19809;DHT22;48538;32.784;-96.802;2024-03-22T14:52:07;15.40;99.90
19809;DHT22;48538;32.784;-96.802;2024-03-22T14:54:34;15.40;99.90
19809;DHT22;48538;32.784;-96.802;2024-03-22T14:57:00;15.40;99.90
19809;DHT22;48538;32.784;-96.802;2024-03-22T14:59:29;15.40;99.90
19809;DHT22;48538;32.784;-96.802;2024-03-22T15:01:56;15.40;99.90